createdAt,value
2018-06-19T00:01:38.636Z,58.68
2018-06-19T00:04:06.809Z,58.86
2018-06-19T00:06:34.975Z,58.93
2018-06-19T00:09:03.161Z,58.89
2018-06-19T00:11:31.677Z,59.06
2018-06-19T00:13:59.850Z,58.92
2018-06-19T00:16:28.000Z,59.37
2018-06-19T00:18:58.016Z,59.75
2018-06-19T00:21:29.597Z,59.21
2018-06-19T00:23:58.121Z,59.95
2018-06-19T00:26:26.348Z,60.03
2018-06-19T00:28:54.508Z,60.31
2018-06-19T00:31:22.681Z,60.25
2018-06-19T00:33:50.836Z,59.77
2018-06-19T00:36:19.007Z,60.65
2018-06-19T00:38:47.409Z,60.16
2018-06-19T00:41:15.564Z,60.32
2018-06-19T00:43:43.708Z,60.35
2018-06-19T00:46:11.874Z,60.74
2018-06-19T00:48:40.027Z,60.75
2018-06-19T00:51:08.198Z,61.16
2018-06-19T00:53:36.418Z,61.84
2018-06-19T00:56:16.010Z,61.41
2018-06-19T00:58:44.419Z,61.42
2018-06-19T01:01:12.561Z,62.02
2018-06-19T01:03:40.744Z,61.91
2018-06-19T01:06:09.052Z,63.21
2018-06-19T01:08:37.330Z,63.13
2018-06-19T01:11:05.520Z,64.26
2018-06-19T01:13:33.794Z,63.83
2018-06-19T01:16:01.968Z,63.78
2018-06-19T01:18:30.131Z,64.26
2018-06-19T01:20:58.402Z,63.51
2018-06-19T01:23:26.554Z,63.73
2018-06-19T01:25:54.696Z,64.08
2018-06-19T01:28:22.862Z,63.86
2018-06-19T01:30:51.048Z,64.52
2018-06-19T01:33:19.206Z,64.71
2018-06-19T01:35:47.465Z,63.93
2018-06-19T01:38:15.718Z,63.97
2018-06-19T01:40:44.116Z,64.59
2018-06-19T01:43:12.287Z,64.61
2018-06-19T01:45:40.780Z,64.24
2018-06-19T01:48:09.031Z,64.60
2018-06-19T01:50:37.212Z,65.89
2018-06-19T01:53:05.567Z,65.36
2018-06-19T01:55:33.746Z,65.43
2018-06-19T01:58:01.904Z,65.94
2018-06-19T02:00:30.101Z,65.72
2018-06-19T02:02:58.258Z,65.69
2018-06-19T02:05:26.432Z,66.46
2018-06-19T02:07:54.585Z,66.65
2018-06-19T02:10:23.959Z,66.97
2018-06-19T02:12:52.128Z,66.63
2018-06-19T02:15:20.284Z,67.06
2018-06-19T02:17:48.428Z,67.70
2018-06-19T02:20:16.616Z,67.42
2018-06-19T02:22:44.768Z,68.39
2018-06-19T02:25:12.940Z,67.85
2018-06-19T02:27:47.608Z,68.00
2018-06-19T02:30:15.826Z,68.22
2018-06-19T02:32:44.004Z,68.58
2018-06-19T02:35:12.486Z,69.11
2018-06-19T02:37:40.666Z,68.95
2018-06-19T02:40:08.829Z,68.59
2018-06-19T02:42:37.056Z,69.32
2018-06-19T02:45:05.781Z,68.63
2018-06-19T02:47:33.963Z,68.75
2018-06-19T02:50:02.124Z,68.79
2018-06-19T02:52:30.337Z,67.80
2018-06-19T02:54:58.549Z,67.67
2018-06-19T02:57:26.721Z,67.57
2018-06-19T02:59:55.140Z,67.76
2018-06-19T03:02:23.341Z,67.32
2018-06-19T03:04:51.520Z,67.84
2018-06-19T03:07:19.730Z,67.74
2018-06-19T03:09:47.899Z,67.13
2018-06-19T03:12:16.089Z,67.31
2018-06-19T03:14:44.236Z,68.09
2018-06-19T03:17:12.411Z,67.58
2018-06-19T03:19:40.560Z,67.15
2018-06-19T03:22:08.736Z,67.41
2018-06-19T03:24:36.884Z,67.27
2018-06-19T03:27:05.032Z,66.83
2018-06-19T03:29:33.200Z,67.04
2018-06-19T03:32:01.364Z,67.47
2018-06-19T03:34:29.946Z,67.65
2018-06-19T03:36:58.085Z,67.66
2018-06-19T03:39:26.240Z,67.62
2018-06-19T03:41:54.405Z,67.79
2018-06-19T03:44:22.626Z,69.12
2018-06-19T03:46:50.825Z,71.30
2018-06-19T03:49:18.989Z,72.19
2018-06-19T03:51:47.166Z,73.08
2018-06-19T03:54:15.404Z,73.42
2018-06-19T03:56:43.580Z,74.39
2018-06-19T03:59:11.725Z,75.12
2018-06-19T04:01:39.878Z,75.54
2018-06-19T04:04:08.044Z,76.61
2018-06-19T04:06:36.208Z,77.12
2018-06-19T04:09:06.073Z,77.16
2018-06-19T04:11:34.578Z,76.31
2018-06-19T04:14:02.796Z,76.24
2018-06-19T04:16:30.968Z,76.90
2018-06-19T04:18:59.595Z,76.56
2018-06-19T04:21:27.772Z,76.25
2018-06-19T04:23:56.304Z,76.85
2018-06-19T04:26:24.473Z,77.27
2018-06-19T04:28:52.639Z,77.04
2018-06-19T04:31:20.811Z,75.76
2018-06-19T04:33:48.975Z,75.96
2018-06-19T04:36:17.159Z,75.34
2018-06-19T04:38:45.309Z,75.04
2018-06-19T04:41:13.469Z,75.45
2018-06-19T04:43:41.622Z,75.28
2018-06-19T04:46:09.794Z,75.20
2018-06-19T04:48:37.944Z,75.17
2018-06-19T04:51:06.119Z,74.12
2018-06-19T04:53:34.277Z,73.90
2018-06-19T04:56:02.450Z,73.46
2018-06-19T04:58:30.616Z,73.07
2018-06-19T05:00:58.802Z,72.94
2018-06-19T05:03:26.959Z,71.96
2018-06-19T05:05:55.104Z,70.62
2018-06-19T05:08:23.303Z,70.26
2018-06-19T05:10:51.473Z,69.21
2018-06-19T05:13:20.525Z,68.81
2018-06-19T05:15:48.688Z,68.71
2018-06-19T05:18:16.845Z,68.46
2018-06-19T05:20:45.015Z,68.20
2018-06-19T05:23:13.237Z,67.73
2018-06-19T05:25:41.433Z,67.83
2018-06-19T05:28:09.593Z,67.07
2018-06-19T05:30:37.745Z,67.76
2018-06-19T05:33:06.035Z,67.71
2018-06-19T05:35:34.208Z,67.81
2018-06-19T05:38:02.377Z,68.15
2018-06-19T05:40:30.552Z,68.00
2018-06-19T05:42:59.008Z,67.02
2018-06-19T05:45:27.178Z,67.58
2018-06-19T05:47:55.352Z,67.15
2018-06-19T05:50:23.524Z,66.89
2018-06-19T05:52:51.844Z,65.12
2018-06-19T05:55:19.991Z,65.74
2018-06-19T05:57:48.177Z,64.66
2018-06-19T06:00:16.392Z,64.67
2018-06-19T06:02:44.752Z,64.70
2018-06-19T06:05:13.294Z,63.80
2018-06-19T06:07:41.459Z,64.14
2018-06-19T06:10:09.776Z,64.58
2018-06-19T06:12:38.295Z,64.11
2018-06-19T06:15:06.475Z,63.90
2018-06-19T06:17:34.651Z,63.06
2018-06-19T06:20:02.862Z,64.24
2018-06-19T06:22:31.044Z,63.06
2018-06-19T06:24:59.195Z,62.32
2018-06-19T06:27:27.353Z,61.41
2018-06-19T06:29:55.566Z,61.26
2018-06-19T06:32:23.838Z,60.11
2018-06-19T06:34:51.999Z,60.48
2018-06-19T06:37:20.141Z,60.38
2018-06-19T06:39:49.442Z,59.60
2018-06-19T06:42:17.588Z,59.10
2018-06-19T06:44:45.868Z,59.29
2018-06-19T06:47:14.029Z,58.91
2018-06-19T06:49:42.214Z,58.97
2018-06-19T06:52:10.405Z,58.59
2018-06-19T06:54:38.546Z,58.53
2018-06-19T06:57:06.797Z,58.81
2018-06-19T06:59:34.944Z,57.53
2018-06-19T07:02:03.109Z,56.27
2018-06-19T07:04:31.327Z,57.32
2018-06-19T07:06:59.477Z,56.89
2018-06-19T07:09:28.067Z,56.07
2018-06-19T07:11:56.234Z,56.23
2018-06-19T07:14:24.401Z,56.69
2018-06-19T07:16:52.559Z,56.16
2018-06-19T07:19:20.732Z,56.57
2018-06-19T07:21:49.167Z,57.59
2018-06-19T07:24:17.329Z,57.08
2018-06-19T07:26:45.483Z,55.93
2018-06-19T07:29:13.666Z,56.29
2018-06-19T07:31:41.860Z,56.96
2018-06-19T07:34:10.009Z,55.68
2018-06-19T07:36:38.506Z,55.61
2018-06-19T07:39:08.192Z,56.53
2018-06-19T07:41:36.344Z,56.29
2018-06-19T07:44:04.537Z,56.32
2018-06-19T07:46:32.697Z,55.58
2018-06-19T07:49:00.878Z,55.28
2018-06-19T07:51:29.038Z,55.17
2018-06-19T07:53:57.188Z,54.48
2018-06-19T07:56:25.393Z,54.96
2018-06-19T07:58:53.555Z,53.20
2018-06-19T08:01:21.784Z,52.57
2018-06-19T08:03:50.006Z,52.24
2018-06-19T08:06:18.207Z,51.73
2018-06-19T08:08:46.757Z,52.20
2018-06-19T08:11:14.934Z,51.46
2018-06-19T08:13:43.151Z,51.24
2018-06-19T08:16:11.372Z,51.34
2018-06-19T08:18:39.592Z,51.99
2018-06-19T08:21:07.766Z,53.68
2018-06-19T08:23:36.153Z,53.45
2018-06-19T08:26:04.428Z,52.70
2018-06-19T08:28:32.616Z,52.43
2018-06-19T08:31:00.796Z,52.55
2018-06-19T08:33:29.175Z,52.60
2018-06-19T08:35:57.357Z,51.61
2018-06-19T08:38:25.608Z,49.97
2018-06-19T08:40:53.818Z,50.48
2018-06-19T08:43:22.290Z,52.14
2018-06-19T08:45:50.693Z,50.81
2018-06-19T08:48:18.929Z,51.38
2018-06-19T08:50:47.164Z,52.24
2018-06-19T08:53:15.413Z,49.86
2018-06-19T08:55:43.591Z,49.28
2018-06-19T08:58:11.834Z,48.07
2018-06-19T09:00:40.115Z,48.48
2018-06-19T09:03:08.301Z,48.17
2018-06-19T09:05:36.513Z,48.28
2018-06-19T09:08:04.838Z,47.89
2018-06-19T09:10:33.046Z,48.37
2018-06-19T09:13:01.261Z,49.40
2018-06-19T09:15:29.469Z,49.68
2018-06-19T09:17:57.714Z,48.73
2018-06-19T09:20:26.037Z,48.20
2018-06-19T09:22:54.196Z,47.73
2018-06-19T09:25:22.512Z,47.60
2018-06-19T09:27:50.993Z,46.89
2018-06-19T09:30:19.452Z,46.83
2018-06-19T09:32:47.653Z,46.79
2018-06-19T09:35:15.856Z,46.44
2018-06-19T09:37:44.150Z,46.16
2018-06-19T09:40:12.340Z,44.55
2018-06-19T09:42:40.579Z,46.32
2018-06-19T09:45:08.880Z,46.36
2018-06-19T09:47:37.433Z,46.09
2018-06-19T09:50:05.650Z,46.54
2018-06-19T09:52:33.959Z,45.65
2018-06-19T09:55:02.187Z,45.49
2018-06-19T09:57:30.482Z,45.84
2018-06-19T09:59:58.718Z,44.29
2018-06-19T10:02:26.927Z,45.10
2018-06-19T10:04:55.107Z,44.34
2018-06-19T10:07:23.373Z,43.10
2018-06-19T10:09:52.640Z,41.55
2018-06-19T10:12:21.397Z,41.13
2018-06-19T10:14:49.583Z,41.33
2018-06-19T10:17:17.855Z,42.85
2018-06-19T10:19:46.074Z,43.67
2018-06-19T10:22:14.285Z,44.45
2018-06-19T10:24:42.485Z,43.88
2018-06-19T10:27:10.758Z,44.62
2018-06-19T10:29:39.018Z,44.96
2018-06-19T10:32:07.318Z,45.21
2018-06-19T10:34:35.480Z,45.93
2018-06-19T10:37:03.689Z,45.20
2018-06-19T10:39:31.884Z,45.83
2018-06-19T10:42:00.120Z,45.52
2018-06-19T10:44:28.415Z,45.07
2018-06-19T10:46:56.622Z,45.99
2018-06-19T10:49:24.880Z,45.49
2018-06-19T10:51:53.119Z,44.69
2018-06-19T10:54:21.364Z,43.39
2018-06-19T10:56:49.658Z,42.48
2018-06-19T10:59:17.996Z,42.04
2018-06-19T11:01:46.319Z,42.43
2018-06-19T11:04:14.580Z,44.22
2018-06-19T11:06:42.806Z,43.97
2018-06-19T11:09:12.307Z,43.40
2018-06-19T11:11:40.669Z,42.95
2018-06-19T11:14:09.044Z,43.07
2018-06-19T11:16:37.270Z,42.86
2018-06-19T11:19:05.584Z,43.09
2018-06-19T11:21:34.180Z,43.22
2018-06-19T11:24:02.589Z,43.13
2018-06-19T11:26:30.797Z,42.40
2018-06-19T11:28:59.016Z,42.05
2018-06-19T11:31:27.270Z,42.35
2018-06-19T11:33:55.481Z,43.44
2018-06-19T11:36:23.703Z,43.24
2018-06-19T11:38:51.969Z,42.77
2018-06-19T11:41:20.151Z,43.45
2018-06-19T11:43:48.380Z,43.83
2018-06-19T11:46:16.883Z,44.32
2018-06-19T11:48:45.165Z,44.29
2018-06-19T11:51:13.378Z,44.32
2018-06-19T11:53:41.564Z,44.18
2018-06-19T11:56:09.764Z,44.63
2018-06-19T11:58:37.973Z,44.40
2018-06-19T12:01:06.224Z,44.64
2018-06-19T12:03:34.461Z,44.97
2018-06-19T12:06:02.694Z,44.31
2018-06-19T12:08:30.847Z,43.70
2018-06-19T12:10:59.025Z,43.05
2018-06-19T12:13:33.900Z,42.87
2018-06-19T12:16:02.078Z,41.84
2018-06-19T12:18:30.292Z,41.73
2018-06-19T12:20:58.492Z,42.07
2018-06-19T12:23:26.673Z,42.41
2018-06-19T12:26:01.762Z,42.54
2018-06-19T12:28:29.978Z,42.51
2018-06-19T12:30:58.198Z,42.61
2018-06-19T12:33:26.432Z,41.96
2018-06-19T12:35:54.621Z,40.96
2018-06-19T12:38:22.859Z,41.66
2018-06-19T12:40:51.369Z,41.18
2018-06-19T12:43:19.571Z,41.03
2018-06-19T12:45:47.785Z,41.78
2018-06-19T12:48:16.016Z,41.65
2018-06-19T12:51:57.610Z,42.01
2018-06-19T12:54:37.830Z,41.89
2018-06-19T12:57:06.043Z,43.04
2018-06-19T12:59:34.310Z,43.09
2018-06-19T13:02:02.546Z,44.19
2018-06-19T13:04:42.283Z,44.43
2018-06-19T13:07:10.438Z,44.57
2018-06-19T13:09:38.658Z,44.79
2018-06-19T13:12:16.642Z,44.80
2018-06-19T13:14:44.884Z,44.26
2018-06-19T13:17:24.629Z,44.12
2018-06-19T13:20:04.240Z,43.35
2018-06-19T13:22:32.450Z,42.94
2018-06-19T13:25:00.710Z,42.40
2018-06-19T13:27:28.912Z,43.84
2018-06-19T13:30:09.901Z,43.84
2018-06-19T13:32:38.534Z,43.74
2018-06-19T13:35:06.946Z,44.74
2018-06-19T13:37:35.423Z,44.11
2018-06-19T13:41:30.392Z,44.25
2018-06-19T13:44:11.724Z,44.79
2018-06-19T13:46:39.914Z,44.57
2018-06-19T13:49:08.101Z,44.68
2018-06-19T13:51:36.344Z,44.74
2018-06-19T13:54:04.585Z,44.75
2018-06-19T13:57:45.583Z,45.10
2018-06-19T14:00:20.771Z,45.81
2018-06-19T14:02:49.042Z,46.90
2018-06-19T14:05:18.300Z,47.61
2018-06-19T14:10:00.068Z,47.83
2018-06-19T14:13:09.298Z,47.46
2018-06-19T14:15:40.091Z,47.84
2018-06-19T14:18:08.766Z,48.09
2018-06-19T14:20:40.338Z,48.57
2018-06-19T14:23:08.638Z,48.78
2018-06-19T14:25:36.870Z,49.51
2018-06-19T14:28:05.153Z,49.79
2018-06-19T14:30:33.372Z,49.66
2018-06-19T14:33:01.571Z,49.15
2018-06-19T14:35:29.876Z,49.36
2018-06-19T14:37:58.313Z,50.25
2018-06-19T14:40:26.572Z,50.99
2018-06-19T14:42:54.785Z,50.75
2018-06-19T14:45:23.013Z,51.30
2018-06-19T14:47:51.246Z,52.07
2018-06-19T14:50:19.518Z,52.81
2018-06-19T14:52:47.820Z,52.30
2018-06-19T14:55:16.054Z,52.09
2018-06-19T14:57:44.276Z,52.85
2018-06-19T15:00:12.757Z,52.73
2018-06-19T15:02:41.257Z,53.75
2018-06-19T15:05:09.504Z,53.59
2018-06-19T15:07:42.722Z,54.29
2018-06-19T15:10:11.026Z,54.12
2018-06-19T15:12:39.196Z,53.94
2018-06-19T15:15:07.396Z,53.25
2018-06-19T15:17:42.553Z,53.55
2018-06-19T15:20:10.763Z,52.83
2018-06-19T15:22:38.996Z,52.64
2018-06-19T15:25:07.288Z,52.93
2018-06-19T15:27:35.542Z,53.13
2018-06-19T15:30:03.836Z,53.43
2018-06-19T15:32:32.084Z,54.29
2018-06-19T15:35:00.331Z,53.73
2018-06-19T15:37:28.552Z,54.67
2018-06-19T15:39:56.796Z,54.95
2018-06-19T15:42:25.007Z,54.74
2018-06-19T15:44:53.298Z,55.32
2018-06-19T15:47:21.564Z,55.05
2018-06-19T15:49:49.781Z,55.38
2018-06-19T15:52:24.800Z,55.56
2018-06-19T15:54:53.031Z,54.91
2018-06-19T15:57:21.588Z,55.53
2018-06-19T15:59:49.841Z,55.57
2018-06-19T16:02:18.075Z,54.95
2018-06-19T16:04:46.280Z,54.73
2018-06-19T16:07:14.518Z,53.33
2018-06-19T16:09:42.767Z,52.57
2018-06-19T16:12:11.033Z,52.75
2018-06-19T16:14:39.245Z,53.04
2018-06-19T16:17:07.486Z,52.95
2018-06-19T16:19:35.717Z,53.63
2018-06-19T16:22:03.940Z,53.30
2018-06-19T16:24:32.390Z,52.60
2018-06-19T16:27:00.602Z,52.63
2018-06-19T16:29:28.809Z,53.01
2018-06-19T16:31:57.011Z,52.81
2018-06-19T16:34:25.215Z,51.35
2018-06-19T16:36:53.391Z,50.91
2018-06-19T16:39:21.703Z,51.43
2018-06-19T16:41:49.935Z,51.62
2018-06-19T16:44:18.162Z,51.57
2018-06-19T16:46:46.377Z,51.35
2018-06-19T16:49:14.589Z,51.09
2018-06-19T16:51:42.820Z,51.68
2018-06-19T16:54:11.070Z,51.75
2018-06-19T16:56:39.486Z,51.94
2018-06-19T16:59:07.758Z,51.29
2018-06-19T17:01:35.957Z,51.74
2018-06-19T17:04:04.173Z,52.11
2018-06-19T17:06:33.675Z,51.49
2018-06-19T17:09:01.917Z,51.34
2018-06-19T17:11:30.138Z,51.09
2018-06-19T17:13:58.505Z,50.94
2018-06-19T17:16:26.685Z,50.77
2018-06-19T17:18:54.882Z,51.49
2018-06-19T17:21:23.163Z,51.72
2018-06-19T17:23:51.369Z,52.50
2018-06-19T17:28:54.446Z,52.89
2018-06-19T17:31:22.646Z,53.35
2018-06-19T17:33:50.801Z,53.17
2018-06-19T17:36:19.017Z,52.44
2018-06-19T17:38:47.219Z,52.11
2018-06-19T17:41:15.519Z,52.99
2018-06-19T17:43:43.781Z,53.10
2018-06-19T17:46:11.995Z,53.53
2018-06-19T17:48:40.310Z,53.50
2018-06-19T17:51:08.580Z,53.65
2018-06-19T17:53:36.813Z,53.69
2018-06-19T17:56:05.151Z,54.55
2018-06-19T17:58:33.406Z,54.27
2018-06-19T18:01:01.627Z,54.54
2018-06-19T18:03:29.816Z,54.42
2018-06-19T18:05:58.034Z,55.04
2018-06-19T18:08:26.311Z,54.81
2018-06-19T18:10:54.579Z,55.41
2018-06-19T18:13:22.873Z,55.16
2018-06-19T18:15:51.089Z,55.35
2018-06-19T18:18:19.393Z,55.72
2018-06-19T18:20:47.686Z,56.09
2018-06-19T18:23:15.887Z,55.95
2018-06-19T18:25:44.105Z,56.36
2018-06-19T18:28:12.665Z,56.92
2018-06-19T18:30:40.906Z,57.30
2018-06-19T18:33:09.093Z,57.46
2018-06-19T18:35:37.291Z,57.92
2018-06-19T18:38:05.767Z,57.75
2018-06-19T18:40:34.000Z,57.64
2018-06-19T18:43:02.224Z,57.58
2018-06-19T18:45:30.500Z,58.58
2018-06-19T18:47:58.756Z,57.60
2018-06-19T18:50:26.988Z,57.77
2018-06-19T18:52:55.552Z,57.44
2018-06-19T18:55:23.792Z,57.12
2018-06-19T18:57:52.021Z,57.55
2018-06-19T19:00:20.187Z,57.24
2018-06-19T19:02:48.434Z,57.86
2018-06-19T19:05:16.691Z,57.77
2018-06-19T19:07:44.942Z,58.26
2018-06-19T19:10:18.282Z,57.91
2018-06-19T19:12:46.897Z,57.86
2018-06-19T19:15:20.524Z,58.40
2018-06-19T19:17:54.091Z,59.06
2018-06-19T19:20:22.432Z,59.10
2018-06-19T19:22:50.673Z,58.57
2018-06-19T19:25:18.902Z,59.22
2018-06-19T19:27:52.481Z,59.53
2018-06-19T19:30:20.643Z,58.94
2018-06-19T19:32:48.893Z,59.06
2018-06-19T19:35:23.686Z,59.82
2018-06-19T19:37:57.144Z,59.81
2018-06-19T19:40:25.328Z,59.85
2018-06-19T19:42:53.536Z,59.95
2018-06-19T19:45:21.724Z,59.54
2018-06-19T19:47:55.452Z,60.27
2018-06-19T19:50:23.757Z,60.55
2018-06-19T19:52:52.085Z,60.28
2018-06-19T19:55:20.337Z,60.06
2018-06-19T19:57:53.990Z,60.09
2018-06-19T20:00:25.462Z,60.34
2018-06-19T20:02:54.096Z,60.84
2018-06-19T20:05:22.406Z,60.73
2018-06-19T20:07:50.650Z,60.55
2018-06-19T20:10:18.889Z,61.26
2018-06-19T20:12:47.130Z,60.93
2018-06-19T20:15:15.343Z,61.29
2018-06-19T20:17:43.637Z,60.77
2018-06-19T20:20:12.358Z,61.09
2018-06-19T20:22:40.926Z,61.38
2018-06-19T20:25:09.560Z,61.10
2018-06-19T20:27:37.739Z,61.16
2018-06-19T20:30:07.412Z,61.99
2018-06-19T20:32:35.689Z,62.19
2018-06-19T20:35:03.924Z,61.86
2018-06-19T20:37:32.144Z,61.87
2018-06-19T20:40:00.426Z,62.21
2018-06-19T20:42:28.637Z,62.69
2018-06-19T20:44:56.927Z,62.54
2018-06-19T20:47:25.161Z,63.41
2018-06-19T20:49:53.433Z,63.41
2018-06-19T20:52:21.628Z,63.52
2018-06-19T20:54:49.794Z,63.62
2018-06-19T20:57:17.979Z,63.58
2018-06-19T20:59:46.228Z,63.80
2018-06-19T21:02:14.476Z,64.18
2018-06-19T21:04:42.829Z,63.75
2018-06-19T21:07:11.057Z,63.97
2018-06-19T21:09:39.242Z,64.27
2018-06-19T21:12:07.494Z,64.52
2018-06-19T21:14:35.736Z,64.61
2018-06-19T21:17:03.899Z,65.62
2018-06-19T21:19:32.115Z,64.95
2018-06-19T21:22:00.310Z,65.17
2018-06-19T21:24:28.582Z,65.56
2018-06-19T21:26:56.768Z,65.73
2018-06-19T21:29:25.331Z,65.33
2018-06-19T21:31:53.586Z,65.51
2018-06-19T21:34:21.797Z,65.72
2018-06-19T21:36:50.368Z,65.43
2018-06-19T21:39:18.624Z,65.24
2018-06-19T21:41:46.810Z,65.18
2018-06-19T21:44:21.559Z,65.88
2018-06-19T21:46:49.811Z,65.87
2018-06-19T21:49:18.007Z,66.22
2018-06-19T21:51:46.273Z,66.10
2018-06-19T21:54:14.450Z,66.20
2018-06-19T21:56:42.667Z,66.28
2018-06-19T21:59:10.965Z,66.77
2018-06-19T22:01:39.245Z,66.47
2018-06-19T22:04:07.478Z,66.70
2018-06-19T22:06:35.742Z,66.55
2018-06-19T22:09:04.502Z,66.94
2018-06-19T22:11:32.726Z,67.20
2018-06-19T22:14:00.948Z,67.20
2018-06-19T22:16:29.162Z,66.78
2018-06-19T22:18:57.372Z,67.24
2018-06-19T22:21:25.628Z,67.69
2018-06-19T22:23:53.838Z,67.90
2018-06-19T22:26:22.281Z,67.99
2018-06-19T22:28:50.535Z,67.72
2018-06-19T22:31:18.748Z,68.44
2018-06-19T22:33:46.962Z,67.98
2018-06-19T22:36:15.246Z,68.64
2018-06-19T22:38:43.443Z,68.47
2018-06-19T22:41:11.719Z,68.82
2018-06-19T22:43:39.936Z,68.94
2018-06-19T22:46:08.169Z,68.77
2018-06-19T22:48:36.355Z,69.04
2018-06-19T22:51:04.641Z,68.49
2018-06-19T22:53:32.813Z,68.60
2018-06-19T22:56:01.038Z,69.25
2018-06-19T22:58:29.359Z,69.34
2018-06-19T23:00:57.603Z,69.62
2018-06-19T23:03:25.920Z,69.72
2018-06-19T23:05:54.155Z,69.31
2018-06-19T23:08:22.412Z,69.65
2018-06-19T23:10:50.714Z,70.16
2018-06-19T23:13:18.939Z,69.45
2018-06-19T23:15:47.316Z,70.22
2018-06-19T23:18:15.528Z,70.08
2018-06-19T23:20:43.728Z,70.72
2018-06-19T23:23:11.986Z,70.18
2018-06-19T23:25:40.218Z,70.67
2018-06-19T23:28:08.473Z,70.41
2018-06-19T23:30:36.697Z,70.06
2018-06-19T23:33:04.884Z,70.51
2018-06-19T23:35:33.149Z,70.12
2018-06-19T23:38:01.372Z,70.55
2018-06-19T23:40:29.600Z,70.17
2018-06-19T23:42:57.830Z,69.82
2018-06-19T23:45:26.038Z,70.36
2018-06-19T23:47:54.222Z,69.99
2018-06-19T23:50:22.389Z,70.75
2018-06-19T23:52:50.620Z,70.94
2018-06-19T23:55:18.864Z,70.77
2018-06-19T23:57:47.098Z,70.93
